sensor_id;sensor_type;location;lat;lon;timestamp;P1;durP1;ratioP1;P2;durP2;ratioP2
22017;SDS011;11173;51.050;7.108;2022-10-16T00:02:48;0.35;;;0.10;;
22017;SDS011;11173;51.050;7.108;2022-10-16T00:08:10;0.20;;;0.20;;
22017;SDS011;11173;51.050;7.108;2022-10-16T00:13:32;0.22;;;0.20;;
22017;SDS011;11173;51.050;7.108;2022-10-16T00:18:54;0.20;;;0.20;;
22017;SDS011;11173;51.050;7.108;2022-10-16T00:24:15;0.10;;;0.10;;
22017;SDS011;11173;51.050;7.108;2022-10-16T00:29:36;0.10;;;0.10;;
22017;SDS011;11173;51.050;7.108;2022-10-16T00:34:56;0.22;;;0.10;;
22017;SDS011;11173;51.050;7.108;2022-10-16T00:40:17;0.20;;;0.20;;
22017;SDS011;11173;51.050;7.108;2022-10-16T00:45:38;0.10;;;0.10;;
22017;SDS011;11173;51.050;7.108;2022-10-16T00:50:59;0.10;;;0.10;;
22017;SDS011;11173;51.050;7.108;2022-10-16T00:56:20;0.47;;;0.10;;
22017;SDS011;11173;51.050;7.108;2022-10-16T01:01:40;0.10;;;0.10;;
22017;SDS011;11173;51.050;7.108;2022-10-16T01:12:45;0.10;;;0.10;;
22017;SDS011;11173;51.050;7.108;2022-10-16T01:23:54;0.10;;;0.10;;
22017;SDS011;11173;51.050;7.108;2022-10-16T01:29:37;0.10;;;0.10;;
22017;SDS011;11173;51.050;7.108;2022-10-16T01:40:32;0.00;;;0.00;;
22017;SDS011;11173;51.050;7.108;2022-10-16T01:45:56;0.15;;;0.15;;
22017;SDS011;11173;51.050;7.108;2022-10-16T01:51:17;0.10;;;0.10;;
22017;SDS011;11173;51.050;7.108;2022-10-16T01:56:40;0.10;;;0.10;;
22017;SDS011;11173;51.050;7.108;2022-10-16T02:02:04;0.10;;;0.08;;
22017;SDS011;11173;51.050;7.108;2022-10-16T02:07:28;0.85;;;0.10;;
22017;SDS011;11173;51.050;7.108;2022-10-16T02:12:50;0.10;;;0.10;;
22017;SDS011;11173;51.050;7.108;2022-10-16T02:18:16;0.03;;;0.03;;
22017;SDS011;11173;51.050;7.108;2022-10-16T02:23:43;0.00;;;0.00;;
22017;SDS011;11173;51.050;7.108;2022-10-16T02:29:14;0.25;;;0.10;;
22017;SDS011;11173;51.050;7.108;2022-10-16T02:34:39;0.10;;;0.10;;
22017;SDS011;11173;51.050;7.108;2022-10-16T02:40:01;0.08;;;0.08;;
22017;SDS011;11173;51.050;7.108;2022-10-16T02:45:26;0.10;;;0.10;;
22017;SDS011;11173;51.050;7.108;2022-10-16T02:50:46;0.10;;;0.10;;
22017;SDS011;11173;51.050;7.108;2022-10-16T02:56:07;1.65;;;0.10;;
22017;SDS011;11173;51.050;7.108;2022-10-16T03:01:28;0.17;;;0.08;;
22017;SDS011;11173;51.050;7.108;2022-10-16T03:06:48;0.00;;;0.00;;
22017;SDS011;11173;51.050;7.108;2022-10-16T03:12:09;0.00;;;0.00;;
22017;SDS011;11173;51.050;7.108;2022-10-16T03:17:32;0.13;;;0.13;;
22017;SDS011;11173;51.050;7.108;2022-10-16T03:22:53;0.10;;;0.10;;
22017;SDS011;11173;51.050;7.108;2022-10-16T03:28:14;0.10;;;0.10;;
22017;SDS011;11173;51.050;7.108;2022-10-16T03:33:34;0.10;;;0.10;;
22017;SDS011;11173;51.050;7.108;2022-10-16T03:38:55;0.10;;;0.10;;
22017;SDS011;11173;51.050;7.108;2022-10-16T03:44:16;0.03;;;0.03;;
22017;SDS011;11173;51.050;7.108;2022-10-16T03:49:36;0.10;;;0.10;;
22017;SDS011;11173;51.050;7.108;2022-10-16T03:54:57;0.10;;;0.10;;
22017;SDS011;11173;51.050;7.108;2022-10-16T04:00:18;0.10;;;0.10;;
22017;SDS011;11173;51.050;7.108;2022-10-16T04:05:38;0.10;;;0.10;;
22017;SDS011;11173;51.050;7.108;2022-10-16T04:10:59;0.10;;;0.10;;
22017;SDS011;11173;51.050;7.108;2022-10-16T04:16:20;0.40;;;0.20;;
22017;SDS011;11173;51.050;7.108;2022-10-16T04:21:40;0.20;;;0.20;;
22017;SDS011;11173;51.050;7.108;2022-10-16T04:27:01;0.10;;;0.10;;
22017;SDS011;11173;51.050;7.108;2022-10-16T04:32:21;0.10;;;0.10;;
22017;SDS011;11173;51.050;7.108;2022-10-16T04:37:42;0.20;;;0.20;;
22017;SDS011;11173;51.050;7.108;2022-10-16T04:43:03;0.13;;;0.13;;
22017;SDS011;11173;51.050;7.108;2022-10-16T04:48:24;0.17;;;0.00;;
22017;SDS011;11173;51.050;7.108;2022-10-16T04:53:45;0.10;;;0.10;;
22017;SDS011;11173;51.050;7.108;2022-10-16T04:59:06;0.10;;;0.10;;
22017;SDS011;11173;51.050;7.108;2022-10-16T05:04:26;0.10;;;0.10;;
22017;SDS011;11173;51.050;7.108;2022-10-16T05:09:47;0.10;;;0.10;;
22017;SDS011;11173;51.050;7.108;2022-10-16T05:15:08;0.05;;;0.05;;
22017;SDS011;11173;51.050;7.108;2022-10-16T05:20:29;0.10;;;0.10;;
22017;SDS011;11173;51.050;7.108;2022-10-16T05:25:53;0.13;;;0.13;;
22017;SDS011;11173;51.050;7.108;2022-10-16T05:31:15;0.10;;;0.10;;
22017;SDS011;11173;51.050;7.108;2022-10-16T05:36:36;0.00;;;0.00;;
22017;SDS011;11173;51.050;7.108;2022-10-16T05:41:57;0.10;;;0.10;;
22017;SDS011;11173;51.050;7.108;2022-10-16T05:47:17;0.10;;;0.10;;
22017;SDS011;11173;51.050;7.108;2022-10-16T05:52:41;0.10;;;0.10;;
22017;SDS011;11173;51.050;7.108;2022-10-16T05:58:01;0.20;;;0.10;;
22017;SDS011;11173;51.050;7.108;2022-10-16T06:03:22;0.05;;;0.05;;
22017;SDS011;11173;51.050;7.108;2022-10-16T06:08:43;0.10;;;0.10;;
22017;SDS011;11173;51.050;7.108;2022-10-16T06:14:05;0.10;;;0.10;;
22017;SDS011;11173;51.050;7.108;2022-10-16T06:19:29;0.00;;;0.00;;
22017;SDS011;11173;51.050;7.108;2022-10-16T06:24:49;0.10;;;0.10;;
22017;SDS011;11173;51.050;7.108;2022-10-16T06:30:10;0.00;;;0.00;;
22017;SDS011;11173;51.050;7.108;2022-10-16T06:35:31;0.10;;;0.10;;
22017;SDS011;11173;51.050;7.108;2022-10-16T06:40:53;0.00;;;0.00;;
22017;SDS011;11173;51.050;7.108;2022-10-16T06:46:15;0.10;;;0.10;;
22017;SDS011;11173;51.050;7.108;2022-10-16T06:51:37;0.05;;;0.00;;
22017;SDS011;11173;51.050;7.108;2022-10-16T06:57:01;0.03;;;0.03;;
22017;SDS011;11173;51.050;7.108;2022-10-16T07:02:22;1.20;;;0.15;;
22017;SDS011;11173;51.050;7.108;2022-10-16T07:07:42;0.10;;;0.10;;
22017;SDS011;11173;51.050;7.108;2022-10-16T07:13:03;0.25;;;0.10;;
22017;SDS011;11173;51.050;7.108;2022-10-16T07:18:24;0.00;;;0.00;;
22017;SDS011;11173;51.050;7.108;2022-10-16T07:23:50;0.10;;;0.10;;
22017;SDS011;11173;51.050;7.108;2022-10-16T07:29:16;0.00;;;0.00;;
22017;SDS011;11173;51.050;7.108;2022-10-16T07:34:41;0.00;;;0.00;;
22017;SDS011;11173;51.050;7.108;2022-10-16T07:40:02;0.08;;;0.08;;
22017;SDS011;11173;51.050;7.108;2022-10-16T07:45:23;0.10;;;0.00;;
22017;SDS011;11173;51.050;7.108;2022-10-16T07:50:44;0.00;;;0.00;;
22017;SDS011;11173;51.050;7.108;2022-10-16T07:56:05;0.00;;;0.00;;
22017;SDS011;11173;51.050;7.108;2022-10-16T08:01:27;0.20;;;0.10;;
22017;SDS011;11173;51.050;7.108;2022-10-16T08:06:48;0.10;;;0.10;;
22017;SDS011;11173;51.050;7.108;2022-10-16T08:12:10;0.00;;;0.00;;
22017;SDS011;11173;51.050;7.108;2022-10-16T08:17:31;0.20;;;0.10;;
22017;SDS011;11173;51.050;7.108;2022-10-16T08:22:51;0.00;;;0.00;;
22017;SDS011;11173;51.050;7.108;2022-10-16T08:28:12;0.20;;;0.20;;
22017;SDS011;11173;51.050;7.108;2022-10-16T08:33:33;0.10;;;0.10;;
22017;SDS011;11173;51.050;7.108;2022-10-16T08:38:55;0.00;;;0.00;;
22017;SDS011;11173;51.050;7.108;2022-10-16T08:44:59;0.00;;;0.00;;
22017;SDS011;11173;51.050;7.108;2022-10-16T08:50:00;0.10;;;0.10;;
22017;SDS011;11173;51.050;7.108;2022-10-16T09:00:41;0.10;;;0.10;;
22017;SDS011;11173;51.050;7.108;2022-10-16T09:05:55;0.00;;;0.00;;
22017;SDS011;11173;51.050;7.108;2022-10-16T09:21:36;0.13;;;0.13;;
22017;SDS011;11173;51.050;7.108;2022-10-16T09:26:43;0.08;;;0.08;;
22017;SDS011;11173;51.050;7.108;2022-10-16T09:31:45;0.10;;;0.10;;
22017;SDS011;11173;51.050;7.108;2022-10-16T09:36:45;0.28;;;0.15;;
22017;SDS011;11173;51.050;7.108;2022-10-16T09:41:47;0.30;;;0.15;;
22017;SDS011;11173;51.050;7.108;2022-10-16T09:46:47;0.10;;;0.08;;
22017;SDS011;11173;51.050;7.108;2022-10-16T09:51:48;0.10;;;0.10;;
22017;SDS011;11173;51.050;7.108;2022-10-16T09:56:48;0.00;;;0.00;;
22017;SDS011;11173;51.050;7.108;2022-10-16T10:01:54;0.05;;;0.05;;
22017;SDS011;11173;51.050;7.108;2022-10-16T10:06:55;0.30;;;0.20;;
22017;SDS011;11173;51.050;7.108;2022-10-16T10:11:57;0.28;;;0.20;;
22017;SDS011;11173;51.050;7.108;2022-10-16T10:22:25;0.70;;;0.10;;
22017;SDS011;11173;51.050;7.108;2022-10-16T10:43:47;0.22;;;0.10;;
22017;SDS011;11173;51.050;7.108;2022-10-16T10:54:20;0.17;;;0.10;;
22017;SDS011;11173;51.050;7.108;2022-10-16T10:59:32;0.00;;;0.00;;
22017;SDS011;11173;51.050;7.108;2022-10-16T11:10:24;0.00;;;0.00;;
22017;SDS011;11173;51.050;7.108;2022-10-16T11:15:35;0.10;;;0.10;;
22017;SDS011;11173;51.050;7.108;2022-10-16T11:20:43;0.35;;;0.17;;
22017;SDS011;11173;51.050;7.108;2022-10-16T11:25:50;0.00;;;0.00;;
22017;SDS011;11173;51.050;7.108;2022-10-16T11:36:02;0.00;;;0.00;;
22017;SDS011;11173;51.050;7.108;2022-10-16T11:41:15;0.00;;;0.00;;
22017;SDS011;11173;51.050;7.108;2022-10-16T11:46:22;0.38;;;0.00;;
22017;SDS011;11173;51.050;7.108;2022-10-16T11:51:31;0.00;;;0.00;;
22017;SDS011;11173;51.050;7.108;2022-10-16T11:56:33;0.10;;;0.00;;
22017;SDS011;11173;51.050;7.108;2022-10-16T12:01:43;0.00;;;0.00;;
22017;SDS011;11173;51.050;7.108;2022-10-16T12:06:51;0.00;;;0.00;;
22017;SDS011;11173;51.050;7.108;2022-10-16T12:11:58;0.00;;;0.00;;
22017;SDS011;11173;51.050;7.108;2022-10-16T12:17:00;0.03;;;0.03;;
22017;SDS011;11173;51.050;7.108;2022-10-16T12:22:23;0.20;;;0.10;;
22017;SDS011;11173;51.050;7.108;2022-10-16T12:32:33;0.00;;;0.00;;
22017;SDS011;11173;51.050;7.108;2022-10-16T12:37:36;0.00;;;0.00;;
22017;SDS011;11173;51.050;7.108;2022-10-16T12:42:38;0.00;;;0.00;;
22017;SDS011;11173;51.050;7.108;2022-10-16T12:47:47;0.10;;;0.00;;
22017;SDS011;11173;51.050;7.108;2022-10-16T12:52:49;0.00;;;0.00;;
22017;SDS011;11173;51.050;7.108;2022-10-16T13:35:53;0.00;;;0.00;;
22017;SDS011;11173;51.050;7.108;2022-10-16T13:46:10;0.00;;;0.00;;
22017;SDS011;11173;51.050;7.108;2022-10-16T13:51:17;0.00;;;0.00;;
22017;SDS011;11173;51.050;7.108;2022-10-16T13:56:19;2.83;;;1.50;;
22017;SDS011;11173;51.050;7.108;2022-10-16T14:01:25;0.50;;;0.50;;
22017;SDS011;11173;51.050;7.108;2022-10-16T14:06:28;0.20;;;0.20;;
22017;SDS011;11173;51.050;7.108;2022-10-16T14:11:29;0.20;;;0.10;;
22017;SDS011;11173;51.050;7.108;2022-10-16T14:16:30;0.10;;;0.10;;
22017;SDS011;11173;51.050;7.108;2022-10-16T14:21:33;0.08;;;0.03;;
22017;SDS011;11173;51.050;7.108;2022-10-16T14:26:40;0.20;;;0.20;;
22017;SDS011;11173;51.050;7.108;2022-10-16T14:31:42;0.20;;;0.20;;
22017;SDS011;11173;51.050;7.108;2022-10-16T14:36:54;1.30;;;0.30;;
22017;SDS011;11173;51.050;7.108;2022-10-16T14:41:56;0.60;;;0.60;;
22017;SDS011;11173;51.050;7.108;2022-10-16T14:46:58;1.20;;;1.10;;
22017;SDS011;11173;51.050;7.108;2022-10-16T14:57:15;0.40;;;0.40;;
22017;SDS011;11173;51.050;7.108;2022-10-16T15:02:28;1.33;;;0.80;;
22017;SDS011;11173;51.050;7.108;2022-10-16T15:07:34;0.60;;;0.60;;
22017;SDS011;11173;51.050;7.108;2022-10-16T15:12:34;0.20;;;0.20;;
22017;SDS011;11173;51.050;7.108;2022-10-16T15:17:35;0.38;;;0.30;;
22017;SDS011;11173;51.050;7.108;2022-10-16T15:22:35;0.32;;;0.20;;
22017;SDS011;11173;51.050;7.108;2022-10-16T15:27:35;1.05;;;0.88;;
22017;SDS011;11173;51.050;7.108;2022-10-16T15:32:40;0.30;;;0.30;;
22017;SDS011;11173;51.050;7.108;2022-10-16T15:37:40;0.22;;;0.22;;
22017;SDS011;11173;51.050;7.108;2022-10-16T15:42:41;0.20;;;0.15;;
22017;SDS011;11173;51.050;7.108;2022-10-16T15:47:41;0.10;;;0.10;;
22017;SDS011;11173;51.050;7.108;2022-10-16T15:52:42;0.20;;;0.20;;
22017;SDS011;11173;51.050;7.108;2022-10-16T15:57:45;0.68;;;0.30;;
22017;SDS011;11173;51.050;7.108;2022-10-16T16:02:49;0.20;;;0.20;;
22017;SDS011;11173;51.050;7.108;2022-10-16T16:07:51;0.20;;;0.20;;
22017;SDS011;11173;51.050;7.108;2022-10-16T16:12:52;0.30;;;0.30;;
22017;SDS011;11173;51.050;7.108;2022-10-16T16:17:52;0.20;;;0.20;;
22017;SDS011;11173;51.050;7.108;2022-10-16T16:22:53;2.42;;;0.60;;
22017;SDS011;11173;51.050;7.108;2022-10-16T16:27:53;6.82;;;0.63;;
22017;SDS011;11173;51.050;7.108;2022-10-16T16:32:54;0.93;;;0.40;;
22017;SDS011;11173;51.050;7.108;2022-10-16T16:37:54;0.30;;;0.20;;
22017;SDS011;11173;51.050;7.108;2022-10-16T16:42:54;0.10;;;0.10;;
22017;SDS011;11173;51.050;7.108;2022-10-16T16:47:55;0.10;;;0.10;;
22017;SDS011;11173;51.050;7.108;2022-10-16T16:52:55;0.10;;;0.10;;
22017;SDS011;11173;51.050;7.108;2022-10-16T16:57:56;0.00;;;0.00;;
22017;SDS011;11173;51.050;7.108;2022-10-16T17:02:56;0.30;;;0.30;;
22017;SDS011;11173;51.050;7.108;2022-10-16T17:07:57;0.68;;;0.68;;
22017;SDS011;11173;51.050;7.108;2022-10-16T17:12:57;0.30;;;0.30;;
22017;SDS011;11173;51.050;7.108;2022-10-16T17:17:58;0.40;;;0.40;;
22017;SDS011;11173;51.050;7.108;2022-10-16T17:22:58;0.50;;;0.50;;
22017;SDS011;11173;51.050;7.108;2022-10-16T17:27:58;0.40;;;0.30;;
22017;SDS011;11173;51.050;7.108;2022-10-16T17:32:59;0.20;;;0.20;;
22017;SDS011;11173;51.050;7.108;2022-10-16T17:37:59;0.20;;;0.20;;
22017;SDS011;11173;51.050;7.108;2022-10-16T17:43:00;1.00;;;0.90;;
22017;SDS011;11173;51.050;7.108;2022-10-16T17:48:01;0.80;;;0.80;;
22017;SDS011;11173;51.050;7.108;2022-10-16T17:53:01;0.30;;;0.30;;
22017;SDS011;11173;51.050;7.108;2022-10-16T17:58:01;0.30;;;0.30;;
22017;SDS011;11173;51.050;7.108;2022-10-16T18:03:02;0.20;;;0.20;;
22017;SDS011;11173;51.050;7.108;2022-10-16T18:08:03;0.10;;;0.10;;
22017;SDS011;11173;51.050;7.108;2022-10-16T18:13:03;0.10;;;0.10;;
22017;SDS011;11173;51.050;7.108;2022-10-16T18:18:03;0.30;;;0.20;;
22017;SDS011;11173;51.050;7.108;2022-10-16T18:23:04;0.20;;;0.20;;
22017;SDS011;11173;51.050;7.108;2022-10-16T18:28:04;0.20;;;0.20;;
22017;SDS011;11173;51.050;7.108;2022-10-16T18:33:05;0.10;;;0.10;;
22017;SDS011;11173;51.050;7.108;2022-10-16T18:38:06;0.40;;;0.30;;
22017;SDS011;11173;51.050;7.108;2022-10-16T18:43:06;0.10;;;0.10;;
22017;SDS011;11173;51.050;7.108;2022-10-16T18:48:07;0.30;;;0.30;;
22017;SDS011;11173;51.050;7.108;2022-10-16T18:53:07;1.00;;;0.40;;
22017;SDS011;11173;51.050;7.108;2022-10-16T18:58:08;0.80;;;0.80;;
22017;SDS011;11173;51.050;7.108;2022-10-16T19:03:08;0.77;;;0.50;;
22017;SDS011;11173;51.050;7.108;2022-10-16T19:08:08;1.42;;;1.33;;
22017;SDS011;11173;51.050;7.108;2022-10-16T19:13:09;2.00;;;1.80;;
22017;SDS011;11173;51.050;7.108;2022-10-16T19:18:09;0.98;;;0.98;;
22017;SDS011;11173;51.050;7.108;2022-10-16T19:23:10;0.88;;;0.80;;
22017;SDS011;11173;51.050;7.108;2022-10-16T19:28:10;1.67;;;0.30;;
22017;SDS011;11173;51.050;7.108;2022-10-16T19:33:11;0.30;;;0.30;;
22017;SDS011;11173;51.050;7.108;2022-10-16T19:38:12;0.25;;;0.25;;
22017;SDS011;11173;51.050;7.108;2022-10-16T19:43:12;0.47;;;0.47;;
22017;SDS011;11173;51.050;7.108;2022-10-16T19:48:12;0.47;;;0.47;;
22017;SDS011;11173;51.050;7.108;2022-10-16T19:53:13;0.95;;;0.30;;
22017;SDS011;11173;51.050;7.108;2022-10-16T19:58:13;0.22;;;0.22;;
22017;SDS011;11173;51.050;7.108;2022-10-16T20:03:13;0.20;;;0.20;;
22017;SDS011;11173;51.050;7.108;2022-10-16T20:08:14;1.13;;;0.70;;
22017;SDS011;11173;51.050;7.108;2022-10-16T20:13:14;0.70;;;0.70;;
22017;SDS011;11173;51.050;7.108;2022-10-16T20:18:15;0.60;;;0.60;;
22017;SDS011;11173;51.050;7.108;2022-10-16T20:23:16;0.40;;;0.40;;
22017;SDS011;11173;51.050;7.108;2022-10-16T20:28:18;0.43;;;0.43;;
22017;SDS011;11173;51.050;7.108;2022-10-16T20:33:19;5.15;;;0.75;;
22017;SDS011;11173;51.050;7.108;2022-10-16T20:38:20;0.50;;;0.50;;
22017;SDS011;11173;51.050;7.108;2022-10-16T20:43:20;0.67;;;0.50;;
22017;SDS011;11173;51.050;7.108;2022-10-16T20:48:21;0.50;;;0.50;;
22017;SDS011;11173;51.050;7.108;2022-10-16T20:53:21;0.60;;;0.57;;
22017;SDS011;11173;51.050;7.108;2022-10-16T20:58:21;2.58;;;1.00;;
22017;SDS011;11173;51.050;7.108;2022-10-16T21:03:22;0.50;;;0.50;;
22017;SDS011;11173;51.050;7.108;2022-10-16T21:08:22;0.85;;;0.85;;
22017;SDS011;11173;51.050;7.108;2022-10-16T21:13:23;1.48;;;0.70;;
22017;SDS011;11173;51.050;7.108;2022-10-16T21:18:23;0.90;;;0.73;;
22017;SDS011;11173;51.050;7.108;2022-10-16T21:23:24;0.80;;;0.80;;
22017;SDS011;11173;51.050;7.108;2022-10-16T21:28:24;0.75;;;0.75;;
22017;SDS011;11173;51.050;7.108;2022-10-16T21:33:24;1.27;;;1.17;;
22017;SDS011;11173;51.050;7.108;2022-10-16T21:38:25;1.42;;;0.85;;
22017;SDS011;11173;51.050;7.108;2022-10-16T21:43:26;1.02;;;1.02;;
22017;SDS011;11173;51.050;7.108;2022-10-16T21:48:26;1.30;;;1.17;;
22017;SDS011;11173;51.050;7.108;2022-10-16T21:53:26;2.00;;;1.33;;
22017;SDS011;11173;51.050;7.108;2022-10-16T21:58:29;1.53;;;1.23;;
22017;SDS011;11173;51.050;7.108;2022-10-16T22:03:30;0.90;;;0.90;;
22017;SDS011;11173;51.050;7.108;2022-10-16T22:08:30;3.77;;;1.30;;
22017;SDS011;11173;51.050;7.108;2022-10-16T22:13:34;1.10;;;1.10;;
22017;SDS011;11173;51.050;7.108;2022-10-16T22:18:35;1.45;;;1.35;;
22017;SDS011;11173;51.050;7.108;2022-10-16T22:23:36;1.25;;;1.15;;
22017;SDS011;11173;51.050;7.108;2022-10-16T22:28:37;1.20;;;1.10;;
22017;SDS011;11173;51.050;7.108;2022-10-16T22:33:38;1.67;;;1.58;;
22017;SDS011;11173;51.050;7.108;2022-10-16T22:38:39;1.40;;;1.30;;
22017;SDS011;11173;51.050;7.108;2022-10-16T22:43:42;1.60;;;1.50;;
22017;SDS011;11173;51.050;7.108;2022-10-16T22:48:44;2.42;;;1.98;;
22017;SDS011;11173;51.050;7.108;2022-10-16T22:53:45;2.22;;;2.00;;
22017;SDS011;11173;51.050;7.108;2022-10-16T22:58:46;2.28;;;2.10;;
22017;SDS011;11173;51.050;7.108;2022-10-16T23:03:48;4.05;;;2.25;;
22017;SDS011;11173;51.050;7.108;2022-10-16T23:08:52;2.22;;;2.08;;
22017;SDS011;11173;51.050;7.108;2022-10-16T23:13:53;1.95;;;1.52;;
22017;SDS011;11173;51.050;7.108;2022-10-16T23:18:54;2.92;;;1.65;;
22017;SDS011;11173;51.050;7.108;2022-10-16T23:23:54;1.67;;;1.57;;
22017;SDS011;11173;51.050;7.108;2022-10-16T23:28:55;1.52;;;1.42;;
22017;SDS011;11173;51.050;7.108;2022-10-16T23:33:57;1.80;;;1.63;;
22017;SDS011;11173;51.050;7.108;2022-10-16T23:38:58;1.98;;;1.35;;
22017;SDS011;11173;51.050;7.108;2022-10-16T23:43:58;1.08;;;1.08;;
22017;SDS011;11173;51.050;7.108;2022-10-16T23:48:59;1.63;;;1.50;;
22017;SDS011;11173;51.050;7.108;2022-10-16T23:53:59;1.50;;;1.40;;
22017;SDS011;11173;51.050;7.108;2022-10-16T23:58:59;1.48;;;1.38;;
